Time;durP1;ratioP1;P1;durP2;ratioP2;P2;SDS_P1;SDS_P2;PMS_P1;PMS_P2;Temp;Humidity;BMP_temperature;BMP_pressure;BME280_temperature;BME280_humidity;BME280_pressure;Samples;Min_cycle;Max_cycle;Signal;HPM_P1;HPM_P2
2024/01/18 00:00:48;;;;;;;;;;;15.90;51.30;;;;;;10283452;28;93512;-64
2024/01/18 00:05:52;;;;;;;;;;;15.80;50.70;;;;;;10279969;28;93632;-62
2024/01/18 00:10:54;;;;;;;;;;;15.80;50.80;;;;;;10278400;28;96983;-63
2024/01/18 00:15:56;;;;;;;;;;;15.70;50.60;;;;;;10278388;28;93447;-63
2024/01/18 00:20:58;;;;;;;;;;;15.60;50.50;;;;;;10270235;28;94527;-63
2024/01/18 00:26:00;;;;;;;;;;;15.60;50.30;;;;;;10274345;28;94698;-63
2024/01/18 00:31:02;;;;;;;;;;;15.60;50.30;;;;;;10273653;28;93768;-63
2024/01/18 00:36:04;;;;;;;;;;;15.50;50.10;;;;;;10286264;28;93606;-63
2024/01/18 00:41:06;;;;;;;;;;;15.50;50.10;;;;;;10267210;28;94571;-64
2024/01/18 00:46:07;;;;;;;;;;;15.60;50.00;;;;;;10281775;28;93635;-64
2024/01/18 00:51:09;;;;;;;;;;;15.60;49.80;;;;;;10279996;28;94375;-64
2024/01/18 00:56:11;;;;;;;;;;;15.60;50.10;;;;;;10274321;28;93606;-64
2024/01/18 01:01:13;;;;;;;;;;;15.50;50.60;;;;;;10266481;28;96814;-63
2024/01/18 01:06:15;;;;;;;;;;;15.50;50.60;;;;;;10264556;28;93504;-63
2024/01/18 01:11:17;;;;;;;;;;;15.60;50.30;;;;;;10265551;28;93525;-67
2024/01/18 01:16:20;;;;;;;;;;;15.70;50.00;;;;;;10273462;28;93791;-63
2024/01/18 01:21:22;;;;;;;;;;;15.90;49.70;;;;;;10262134;28;93869;-63
2024/01/18 01:26:24;;;;;;;;;;;15.90;49.30;;;;;;10268832;28;94031;-64
2024/01/18 01:31:26;;;;;;;;;;;16.00;49.10;;;;;;10260757;28;93725;-64
2024/01/18 01:36:28;;;;;;;;;;;15.90;48.80;;;;;;10275156;28;93766;-63
2024/01/18 01:41:30;;;;;;;;;;;15.90;48.80;;;;;;10262600;28;94296;-63
2024/01/18 01:46:32;;;;;;;;;;;15.90;48.80;;;;;;10275761;28;93455;-64
2024/01/18 01:51:48;;;;;;;;;;;15.70;49.20;;;;;;10277272;28;95772;-64
2024/01/18 01:56:52;;;;;;;;;;;15.70;49.70;;;;;;10260869;28;93209;-64
2024/01/18 02:07:15;;;;;;;;;;;15.60;49.60;;;;;;10286908;25;94212;-66
2024/01/18 02:12:17;;;;;;;;;;;15.50;49.60;;;;;;10355748;28;93370;-66
2024/01/18 02:17:19;;;;;;;;;;;15.50;49.40;;;;;;10351802;28;94437;-66
2024/01/18 02:22:22;;;;;;;;;;;15.50;49.40;;;;;;10352966;28;93961;-66
2024/01/18 02:27:24;;;;;;;;;;;15.50;49.30;;;;;;10353505;28;93254;-66
2024/01/18 02:32:26;;;;;;;;;;;15.50;49.00;;;;;;10379543;28;93614;-66
2024/01/18 02:37:27;;;;;;;;;;;15.50;48.90;;;;;;10408757;28;92784;-66
2024/01/18 02:42:29;;;;;;;;;;;15.50;49.00;;;;;;10402901;28;95959;-66
2024/01/18 02:47:31;;;;;;;;;;;15.40;49.50;;;;;;10382644;28;93100;-66
2024/01/18 02:52:33;;;;;;;;;;;15.50;49.90;;;;;;10339752;28;93918;-67
2024/01/18 02:57:35;;;;;;;;;;;15.60;49.60;;;;;;10359797;28;93809;-67
2024/01/18 03:02:37;;;;;;;;;;;15.80;49.20;;;;;;10346298;28;94514;-67
2024/01/18 03:07:39;;;;;;;;;;;15.90;48.80;;;;;;10360726;28;94378;-67
2024/01/18 03:12:41;;;;;;;;;;;16.00;48.40;;;;;;10360468;28;93601;-68
2024/01/18 03:17:43;;;;;;;;;;;16.00;48.10;;;;;;10360090;28;92895;-68
2024/01/18 03:22:45;;;;;;;;;;;16.00;48.10;;;;;;10352177;28;93801;-68
2024/01/18 03:27:47;;;;;;;;;;;15.90;47.90;;;;;;10350144;28;94656;-68
2024/01/18 03:32:48;;;;;;;;;;;15.90;48.10;;;;;;10334807;28;97060;-68
2024/01/18 03:37:50;;;;;;;;;;;15.90;48.30;;;;;;10347037;28;93318;-68
2024/01/18 03:42:52;;;;;;;;;;;15.80;48.70;;;;;;10363673;28;94376;-68
2024/01/18 03:47:54;;;;;;;;;;;15.80;48.80;;;;;;10344508;28;94429;-68
2024/01/18 03:52:56;;;;;;;;;;;15.80;48.80;;;;;;10344502;28;94409;-68
2024/01/18 03:57:58;;;;;;;;;;;15.70;48.60;;;;;;10344785;28;93383;-68
2024/01/18 04:03:00;;;;;;;;;;;15.70;48.60;;;;;;10354484;28;93420;-67
2024/01/18 04:08:02;;;;;;;;;;;15.70;48.30;;;;;;10368338;28;94276;-68
2024/01/18 04:13:03;;;;;;;;;;;15.70;48.10;;;;;;10342090;28;93441;-67
2024/01/18 04:18:05;;;;;;;;;;;15.70;48.10;;;;;;10333444;28;93964;-67
2024/01/18 04:23:07;;;;;;;;;;;15.60;48.10;;;;;;10331640;28;96258;-66
2024/01/18 04:28:09;;;;;;;;;;;15.60;48.10;;;;;;10355013;28;93035;-67
2024/01/18 04:33:11;;;;;;;;;;;15.60;48.40;;;;;;10365051;28;93487;-67
2024/01/18 04:38:13;;;;;;;;;;;15.60;48.80;;;;;;10347832;28;94402;-67
2024/01/18 04:43:15;;;;;;;;;;;15.60;48.80;;;;;;10354807;28;93770;-67
2024/01/18 04:48:17;;;;;;;;;;;15.50;48.90;;;;;;10348812;28;93504;-67
2024/01/18 04:53:19;;;;;;;;;;;15.50;49.10;;;;;;10337910;28;94422;-67
2024/01/18 04:58:21;;;;;;;;;;;15.60;49.10;;;;;;10342203;28;92433;-67
2024/01/18 05:03:25;;;;;;;;;;;15.70;48.80;;;;;;10331087;28;94533;-67
2024/01/18 05:08:27;;;;;;;;;;;15.70;48.60;;;;;;10335995;28;94695;-67
2024/01/18 05:13:28;;;;;;;;;;;15.70;48.50;;;;;;10330874;28;96758;-67
2024/01/18 05:18:30;;;;;;;;;;;15.70;48.50;;;;;;10354293;28;94442;-67
2024/01/18 05:23:32;;;;;;;;;;;15.70;48.60;;;;;;10363697;28;93655;-67
2024/01/18 05:28:34;;;;;;;;;;;15.80;48.60;;;;;;10353692;28;94438;-67
2024/01/18 05:33:35;;;;;;;;;;;15.80;48.40;;;;;;10350915;28;94234;-67
2024/01/18 05:38:37;;;;;;;;;;;15.80;48.30;;;;;;10347607;28;92589;-67
2024/01/18 05:43:42;;;;;;;;;;;15.80;48.40;;;;;;10358075;28;92662;-67
2024/01/18 05:48:44;;;;;;;;;;;15.90;48.50;;;;;;10339430;28;92662;-67
2024/01/18 05:53:46;;;;;;;;;;;16.10;48.30;;;;;;10342057;28;93653;-67
2024/01/18 05:58:48;;;;;;;;;;;16.30;47.80;;;;;;10366153;28;93496;-66
2024/01/18 06:03:50;;;;;;;;;;;16.60;47.30;;;;;;10350835;28;96621;-66
2024/01/18 06:08:52;;;;;;;;;;;16.80;47.80;;;;;;10349357;28;94623;-66
2024/01/18 06:13:53;;;;;;;;;;;17.00;46.40;;;;;;10367823;28;94466;-67
2024/01/18 06:18:55;;;;;;;;;;;17.10;46.10;;;;;;10357109;28;94393;-68
2024/01/18 06:23:57;;;;;;;;;;;17.20;46.10;;;;;;10357149;28;93835;-68
2024/01/18 06:28:59;;;;;;;;;;;17.30;45.90;;;;;;10357280;28;93462;-68
2024/01/18 06:34:00;;;;;;;;;;;17.40;45.90;;;;;;10357511;28;93936;-67
2024/01/18 06:39:03;;;;;;;;;;;17.40;45.70;;;;;;10367749;28;92751;-68
2024/01/18 06:44:05;;;;;;;;;;;17.40;45.90;;;;;;10349780;28;93395;-67
2024/01/18 06:49:08;;;;;;;;;;;17.30;46.70;;;;;;10363376;28;92788;-68
2024/01/18 06:54:10;;;;;;;;;;;17.20;47.40;;;;;;10367063;28;97002;-68
2024/01/18 06:59:12;;;;;;;;;;;17.20;47.20;;;;;;10356280;28;94470;-72
2024/01/18 07:04:14;;;;;;;;;;;17.20;48.30;;;;;;10358625;28;93922;-68
2024/01/18 07:09:15;;;;;;;;;;;17.30;49.10;;;;;;10355327;28;93732;-66
2024/01/18 07:14:17;;;;;;;;;;;17.50;49.60;;;;;;10375858;28;94305;-66
2024/01/18 07:19:19;;;;;;;;;;;17.50;49.30;;;;;;10359226;28;93406;-65
2024/01/18 07:24:22;;;;;;;;;;;17.50;49.00;;;;;;10357133;28;93980;-66
2024/01/18 07:29:25;;;;;;;;;;;17.30;49.00;;;;;;10360146;28;92978;-64
2024/01/18 07:34:27;;;;;;;;;;;17.20;49.20;;;;;;10369022;28;94410;-64
2024/01/18 07:39:30;;;;;;;;;;;17.10;49.50;;;;;;10366084;28;93454;-65
2024/01/18 07:44:33;;;;;;;;;;;16.90;49.80;;;;;;10363619;28;96987;-65
2024/01/18 07:49:35;;;;;;;;;;;16.80;50.10;;;;;;10359901;28;93856;-66
2024/01/18 07:54:36;;;;;;;;;;;16.70;50.30;;;;;;10354274;28;92896;-66
2024/01/18 07:59:38;;;;;;;;;;;16.50;50.40;;;;;;10351157;28;93427;-66
2024/01/18 08:04:40;;;;;;;;;;;16.40;51.60;;;;;;10372449;28;93426;-65
2024/01/18 08:09:42;;;;;;;;;;;16.30;50.60;;;;;;10377252;28;93608;-66
2024/01/18 08:14:45;;;;;;;;;;;16.10;50.70;;;;;;10367208;28;94181;-65
2024/01/18 08:19:46;;;;;;;;;;;16.10;50.90;;;;;;10377733;28;91825;-66
2024/01/18 08:24:52;;;;;;;;;;;15.90;50.90;;;;;;10375587;28;114577;-66
2024/01/18 08:29:53;;;;;;;;;;;15.90;51.10;;;;;;10368854;28;94326;-65
2024/01/18 08:34:55;;;;;;;;;;;15.80;51.20;;;;;;10353801;28;95818;-65
2024/01/18 08:39:57;;;;;;;;;;;15.70;51.30;;;;;;10341412;28;94468;-65
2024/01/18 08:44:59;;;;;;;;;;;15.60;51.30;;;;;;10362973;28;94460;-65
2024/01/18 08:50:01;;;;;;;;;;;15.50;51.30;;;;;;10347378;28;94550;-66
2024/01/18 08:55:05;;;;;;;;;;;15.50;51.40;;;;;;10360185;28;95020;-65
2024/01/18 09:00:07;;;;;;;;;;;15.40;51.40;;;;;;10357895;28;94418;-65
2024/01/18 09:05:09;;;;;;;;;;;15.40;51.50;;;;;;10363670;28;94707;-66
2024/01/18 09:10:11;;;;;;;;;;;15.30;51.60;;;;;;10350853;28;93890;-66
2024/01/18 09:15:13;;;;;;;;;;;15.30;51.70;;;;;;10348434;28;93733;-65
2024/01/18 09:20:15;;;;;;;;;;;15.20;51.70;;;;;;10357425;28;93201;-66
2024/01/18 09:25:17;;;;;;;;;;;15.20;51.80;;;;;;10358394;28;95944;-66
2024/01/18 09:30:19;;;;;;;;;;;15.20;51.60;;;;;;10356994;28;94413;-65
2024/01/18 09:35:21;;;;;;;;;;;15.30;51.50;;;;;;10365731;28;94485;-65
2024/01/18 09:40:23;;;;;;;;;;;15.30;52.30;;;;;;10360867;28;94580;-66
2024/01/18 09:45:26;;;;;;;;;;;15.40;51.20;;;;;;10353173;28;94402;-66
2024/01/18 09:50:30;;;;;;;;;;;15.50;51.10;;;;;;10363593;28;94569;-66
2024/01/18 09:55:32;;;;;;;;;;;15.50;51.00;;;;;;10384147;28;93013;-66
2024/01/18 10:00:35;;;;;;;;;;;15.50;50.90;;;;;;10359952;28;92752;-66
2024/01/18 10:05:37;;;;;;;;;;;15.40;50.90;;;;;;10377672;28;93518;-65
2024/01/18 10:10:39;;;;;;;;;;;15.40;50.90;;;;;;10370926;28;93411;-66
2024/01/18 10:15:42;;;;;;;;;;;15.40;52.10;;;;;;10347885;28;96837;-66
2024/01/18 10:20:46;;;;;;;;;;;15.40;51.20;;;;;;10370903;28;93985;-66
2024/01/18 10:25:48;;;;;;;;;;;15.30;51.20;;;;;;10360351;28;92717;-66
2024/01/18 10:30:51;;;;;;;;;;;15.30;51.40;;;;;;10361425;28;94129;-65
2024/01/18 10:35:53;;;;;;;;;;;15.20;51.40;;;;;;10368435;28;93449;-65
2024/01/18 10:40:57;;;;;;;;;;;15.20;51.40;;;;;;10369686;28;93396;-66
2024/01/18 10:45:59;;;;;;;;;;;15.10;51.40;;;;;;10354490;28;94776;-66
2024/01/18 10:51:01;;;;;;;;;;;15.10;51.60;;;;;;10362793;28;91903;-66
2024/01/18 10:56:04;;;;;;;;;;;15.10;51.60;;;;;;10369231;28;93832;-66
2024/01/18 11:01:05;;;;;;;;;;;15.10;51.70;;;;;;10362083;28;93600;-66
2024/01/18 11:06:10;;;;;;;;;;;15.10;51.60;;;;;;10367023;28;96804;-65
2024/01/18 11:11:12;;;;;;;;;;;15.10;51.50;;;;;;10368835;28;93492;-66
2024/01/18 11:16:14;;;;;;;;;;;15.20;51.40;;;;;;10366184;28;93562;-65
2024/01/18 11:21:16;;;;;;;;;;;15.30;51.20;;;;;;10352983;28;94262;-66
2024/01/18 11:26:20;;;;;;;;;;;15.30;51.20;;;;;;10345954;28;94536;-66
2024/01/18 11:31:42;;;;;;;;;;;15.20;51.20;;;;;;10368708;28;92558;-66
2024/01/18 11:36:48;;;;;;;;;;;15.20;51.20;;;;;;10358612;28;94522;-66
2024/01/18 11:41:49;;;;;;;;;;;15.20;51.20;;;;;;10355484;28;92613;-66
2024/01/18 11:46:53;;;;;;;;;;;15.20;51.30;;;;;;10351640;28;94574;-66
2024/01/18 11:51:58;;;;;;;;;;;15.10;51.40;;;;;;10365294;28;94417;-66
2024/01/18 11:57:00;;;;;;;;;;;15.10;51.40;;;;;;10368204;28;96873;-66
2024/01/18 12:02:02;;;;;;;;;;;15.10;51.60;;;;;;10371597;28;92818;-65
2024/01/18 12:07:07;;;;;;;;;;;15.00;51.70;;;;;;10373076;28;92531;-65
2024/01/18 12:12:09;;;;;;;;;;;15.00;51.70;;;;;;10359090;28;94707;-65
2024/01/18 12:17:12;;;;;;;;;;;14.90;51.80;;;;;;10363545;28;94111;-65
2024/01/18 12:22:17;;;;;;;;;;;14.90;51.90;;;;;;10353853;28;94022;-65
2024/01/18 12:27:20;;;;;;;;;;;14.90;52.00;;;;;;10353987;28;93557;-65
2024/01/18 12:32:22;;;;;;;;;;;14.90;51.90;;;;;;10365939;28;93383;-65
2024/01/18 12:37:24;;;;;;;;;;;14.90;52.00;;;;;;10351649;28;93287;-66
2024/01/18 12:42:26;;;;;;;;;;;15.00;52.00;;;;;;10366683;28;93476;-65
2024/01/18 12:47:27;;;;;;;;;;;15.00;52.00;;;;;;10364785;28;95832;-65
2024/01/18 12:52:30;;;;;;;;;;;15.00;52.00;;;;;;10363843;28;94506;-65
2024/01/18 12:57:32;;;;;;;;;;;15.00;52.00;;;;;;10361346;28;94782;-66
2024/01/18 13:02:34;;;;;;;;;;;15.00;52.50;;;;;;10354276;28;93380;-65
2024/01/18 13:07:36;;;;;;;;;;;15.00;52.00;;;;;;10366451;28;94710;-66
2024/01/18 13:12:38;;;;;;;;;;;15.00;52.10;;;;;;10361710;28;94135;-66
2024/01/18 13:17:41;;;;;;;;;;;14.90;52.10;;;;;;10340453;28;94571;-66
2024/01/18 13:22:43;;;;;;;;;;;14.90;52.20;;;;;;10356488;28;92310;-65
2024/01/18 13:27:45;;;;;;;;;;;14.90;52.20;;;;;;10356838;28;92982;-68
2024/01/18 13:32:47;;;;;;;;;;;14.90;52.30;;;;;;10357252;28;94482;-66
2024/01/18 13:37:49;;;;;;;;;;;14.90;52.30;;;;;;10352830;28;96827;-65
2024/01/18 13:42:51;;;;;;;;;;;14.90;52.40;;;;;;10354571;28;94811;-66
2024/01/18 13:47:54;;;;;;;;;;;14.90;52.60;;;;;;10377104;28;93467;-66
2024/01/18 13:52:56;;;;;;;;;;;14.80;52.70;;;;;;10360547;28;93967;-68
2024/01/18 13:57:59;;;;;;;;;;;14.80;52.60;;;;;;10357217;28;92571;-66
2024/01/18 14:03:01;;;;;;;;;;;14.80;52.60;;;;;;10368946;28;93554;-66
2024/01/18 14:08:04;;;;;;;;;;;14.80;52.50;;;;;;10351468;28;93064;-65
2024/01/18 14:13:06;;;;;;;;;;;14.90;52.50;;;;;;10362439;28;92553;-65
2024/01/18 14:18:10;;;;;;;;;;;15.00;52.50;;;;;;10352161;28;94428;-67
2024/01/18 14:23:12;;;;;;;;;;;15.10;52.30;;;;;;10357026;28;93387;-66
2024/01/18 14:28:14;;;;;;;;;;;15.30;52.00;;;;;;10367759;28;96375;-66
2024/01/18 14:33:16;;;;;;;;;;;15.60;51.70;;;;;;10353508;28;94373;-66
2024/01/18 14:38:18;;;;;;;;;;;15.80;51.20;;;;;;10348816;28;94709;-66
2024/01/18 14:43:21;;;;;;;;;;;16.00;50.80;;;;;;10362864;28;93828;-66
2024/01/18 14:48:23;;;;;;;;;;;16.20;50.50;;;;;;10368116;28;94477;-66
2024/01/18 14:53:25;;;;;;;;;;;16.40;50.20;;;;;;10369396;28;94533;-66
2024/01/18 14:58:27;;;;;;;;;;;16.50;50.00;;;;;;10370308;28;97867;-66
2024/01/18 15:03:28;;;;;;;;;;;16.70;49.80;;;;;;10383527;28;93687;-65
2024/01/18 15:08:30;;;;;;;;;;;16.80;49.50;;;;;;10366284;28;92783;-66
2024/01/18 15:13:32;;;;;;;;;;;16.90;49.40;;;;;;10353014;28;94008;-66
2024/01/18 15:18:34;;;;;;;;;;;17.00;49.30;;;;;;10348130;28;96388;-66
2024/01/18 15:23:36;;;;;;;;;;;17.10;49.10;;;;;;10355191;28;94021;-66
2024/01/18 15:28:38;;;;;;;;;;;17.10;48.90;;;;;;10365579;28;94635;-66
2024/01/18 15:33:40;;;;;;;;;;;17.20;48.80;;;;;;10362295;28;93817;-66
2024/01/18 15:38:42;;;;;;;;;;;17.30;48.70;;;;;;10384975;28;93940;-65
2024/01/18 15:43:44;;;;;;;;;;;17.40;48.60;;;;;;10347295;28;94269;-66
2024/01/18 15:48:46;;;;;;;;;;;17.50;48.50;;;;;;10380843;28;93529;-66
2024/01/18 15:53:48;;;;;;;;;;;17.50;48.30;;;;;;10390142;28;92795;-66
2024/01/18 15:58:50;;;;;;;;;;;17.60;48.20;;;;;;10377610;28;94799;-66
2024/01/18 16:03:52;;;;;;;;;;;17.70;48.10;;;;;;10373065;28;94502;-66
2024/01/18 16:08:54;;;;;;;;;;;17.80;47.90;;;;;;10369216;28;96604;-66
2024/01/18 16:13:56;;;;;;;;;;;17.80;47.80;;;;;;10360961;28;93937;-66
2024/01/18 16:18:57;;;;;;;;;;;17.90;47.80;;;;;;10366037;28;93443;-66
2024/01/18 16:23:59;;;;;;;;;;;17.90;47.60;;;;;;10349215;28;94049;-67
2024/01/18 16:29:01;;;;;;;;;;;18.00;47.60;;;;;;10363207;28;93512;-66
2024/01/18 16:34:03;;;;;;;;;;;18.00;47.40;;;;;;10346726;28;93434;-67
2024/01/18 16:39:05;;;;;;;;;;;18.00;47.40;;;;;;10348076;28;93395;-65
2024/01/18 16:44:08;;;;;;;;;;;18.10;47.50;;;;;;10351859;28;93167;-66
2024/01/18 16:49:10;;;;;;;;;;;18.10;47.70;;;;;;10346187;28;94381;-67
2024/01/18 16:54:12;;;;;;;;;;;18.30;48.70;;;;;;10353402;28;93979;-66
2024/01/18 16:59:14;;;;;;;;;;;18.40;52.20;;;;;;10332028;28;96789;-66
2024/01/18 17:04:16;;;;;;;;;;;18.50;52.20;;;;;;10346260;28;94213;-67
2024/01/18 17:09:18;;;;;;;;;;;18.50;52.20;;;;;;10367623;28;94625;-66
2024/01/18 17:14:20;;;;;;;;;;;18.60;53.90;;;;;;10355453;28;93710;-69
2024/01/18 17:19:22;;;;;;;;;;;18.70;55.20;;;;;;10346463;28;93409;-66
2024/01/18 17:24:26;;;;;;;;;;;18.90;55.50;;;;;;10353097;28;94403;-67
2024/01/18 17:29:28;;;;;;;;;;;18.90;54.20;;;;;;10357080;28;94641;-66
2024/01/18 17:34:30;;;;;;;;;;;18.80;53.50;;;;;;10350507;28;93348;-67
2024/01/18 17:39:32;;;;;;;;;;;18.80;52.60;;;;;;10351749;28;93185;-64
2024/01/18 17:44:34;;;;;;;;;;;18.80;52.40;;;;;;10348609;28;93372;-64
2024/01/18 17:49:36;;;;;;;;;;;19.00;51.50;;;;;;10356430;28;96995;-64
2024/01/18 17:54:37;;;;;;;;;;;19.10;50.90;;;;;;10357915;28;93898;-64
2024/01/18 17:59:39;;;;;;;;;;;19.20;50.30;;;;;;10356713;28;93920;-64
2024/01/18 18:04:42;;;;;;;;;;;19.30;50.00;;;;;;10374982;28;94147;-65
2024/01/18 18:09:43;;;;;;;;;;;19.40;49.60;;;;;;10367719;28;94702;-65
2024/01/18 18:14:45;;;;;;;;;;;19.50;49.30;;;;;;10371529;28;94257;-65
2024/01/18 18:19:47;;;;;;;;;;;19.50;49.10;;;;;;10381083;27;93643;-66
2024/01/18 18:24:51;;;;;;;;;;;19.60;49.00;;;;;;10364812;28;93875;-65
2024/01/18 18:29:53;;;;;;;;;;;19.60;48.90;;;;;;10352902;28;94603;-65
2024/01/18 18:34:54;;;;;;;;;;;19.50;48.80;;;;;;10353415;28;93333;-65
2024/01/18 18:39:56;;;;;;;;;;;19.40;49.10;;;;;;10356077;28;96423;-65
2024/01/18 18:44:58;;;;;;;;;;;19.30;49.50;;;;;;10374119;28;94475;-65
2024/01/18 18:50:00;;;;;;;;;;;19.20;49.50;;;;;;10346283;28;93408;-65
2024/01/18 18:55:02;;;;;;;;;;;19.10;49.60;;;;;;10360302;28;93533;-66
2024/01/18 19:00:05;;;;;;;;;;;19.10;50.30;;;;;;10373982;28;93468;-66
2024/01/18 19:05:07;;;;;;;;;;;19.20;50.90;;;;;;10354764;28;93293;-66
2024/01/18 19:10:09;;;;;;;;;;;19.40;50.20;;;;;;10352361;28;94543;-65
2024/01/18 19:15:11;;;;;;;;;;;19.50;49.70;;;;;;10338243;28;93291;-66
2024/01/18 19:20:13;;;;;;;;;;;19.50;49.40;;;;;;10358513;28;93818;-66
2024/01/18 19:25:15;;;;;;;;;;;19.60;49.20;;;;;;10344179;28;93685;-65
2024/01/18 19:30:17;;;;;;;;;;;19.50;49.10;;;;;;10363780;28;96305;-66
2024/01/18 19:35:19;;;;;;;;;;;19.30;49.20;;;;;;10357105;28;93126;-67
2024/01/18 19:40:21;;;;;;;;;;;19.20;49.20;;;;;;10356330;28;93557;-66
2024/01/18 19:45:23;;;;;;;;;;;19.20;49.10;;;;;;10366505;28;94581;-67
2024/01/18 19:50:26;;;;;;;;;;;19.20;49.10;;;;;;10359636;28;94490;-66
2024/01/18 19:55:28;;;;;;;;;;;19.10;49.10;;;;;;10358845;28;92602;-66
2024/01/18 20:00:30;;;;;;;;;;;19.20;49.00;;;;;;10350178;28;94503;-66
2024/01/18 20:05:33;;;;;;;;;;;19.30;48.80;;;;;;10358949;28;93248;-67
2024/01/18 20:10:35;;;;;;;;;;;19.40;48.60;;;;;;10367483;28;94578;-70
2024/01/18 20:15:37;;;;;;;;;;;19.50;48.50;;;;;;10353385;28;94582;-69
2024/01/18 20:20:39;;;;;;;;;;;19.50;48.60;;;;;;10350775;28;94948;-66
2024/01/18 20:25:41;;;;;;;;;;;19.40;48.60;;;;;;10360548;28;94659;-66
2024/01/18 20:30:43;;;;;;;;;;;19.20;48.90;;;;;;10347997;28;94377;-66
2024/01/18 20:35:45;;;;;;;;;;;19.20;49.10;;;;;;10364137;28;94610;-66
2024/01/18 20:40:47;;;;;;;;;;;19.20;49.20;;;;;;10360972;28;94050;-66
2024/01/18 20:45:49;;;;;;;;;;;19.20;49.10;;;;;;10361798;28;94422;-66
2024/01/18 20:50:51;;;;;;;;;;;19.10;49.20;;;;;;10354921;28;94757;-65
2024/01/18 20:55:53;;;;;;;;;;;18.90;49.20;;;;;;10353907;28;92902;-66
2024/01/18 21:00:55;;;;;;;;;;;18.70;49.50;;;;;;10339066;28;94516;-66
2024/01/18 21:05:57;;;;;;;;;;;18.50;49.60;;;;;;10355590;28;95647;-66
2024/01/18 21:11:02;;;;;;;;;;;18.40;49.90;;;;;;10356512;28;96380;-66
2024/01/18 21:16:04;;;;;;;;;;;18.20;50.10;;;;;;10356394;28;93602;-66
2024/01/18 21:21:05;;;;;;;;;;;18.10;50.40;;;;;;10362709;28;94604;-65
2024/01/18 21:26:07;;;;;;;;;;;18.00;50.70;;;;;;10357262;28;94077;-65
2024/01/18 21:31:09;;;;;;;;;;;17.80;50.90;;;;;;10356814;28;93266;-65
2024/01/18 21:36:11;;;;;;;;;;;17.70;50.90;;;;;;10355523;28;94508;-66
2024/01/18 21:41:13;;;;;;;;;;;17.60;51.20;;;;;;10353441;28;92580;-65
2024/01/18 21:46:15;;;;;;;;;;;17.50;51.30;;;;;;10355097;28;93762;-65
2024/01/18 21:51:18;;;;;;;;;;;17.40;51.40;;;;;;10357407;28;94711;-65
2024/01/18 21:56:21;;;;;;;;;;;17.30;51.60;;;;;;10361318;28;93467;-66
2024/01/18 22:01:23;;;;;;;;;;;17.20;51.60;;;;;;10356341;28;96623;-65
2024/01/18 22:06:25;;;;;;;;;;;17.10;51.90;;;;;;10355726;28;93734;-64
2024/01/18 22:11:27;;;;;;;;;;;17.00;51.80;;;;;;10358472;28;93460;-64
2024/01/18 22:16:29;;;;;;;;;;;16.90;52.00;;;;;;10352211;28;93432;-64
2024/01/18 22:21:31;;;;;;;;;;;16.90;52.00;;;;;;10349364;28;95119;-64
2024/01/18 22:26:33;;;;;;;;;;;16.80;51.90;;;;;;10369155;28;94509;-67
2024/01/18 22:31:34;;;;;;;;;;;16.70;51.90;;;;;;10351199;28;94485;-73
2024/01/18 22:36:37;;;;;;;;;;;16.60;51.90;;;;;;10357069;28;92380;-64
2024/01/18 22:41:38;;;;;;;;;;;16.60;52.00;;;;;;10357825;28;94845;-64
2024/01/18 22:46:41;;;;;;;;;;;16.50;51.90;;;;;;10348654;28;94418;-64
2024/01/18 22:51:43;;;;;;;;;;;16.50;51.90;;;;;;10354329;28;96268;-63
2024/01/18 22:56:45;;;;;;;;;;;16.40;51.60;;;;;;10351166;28;94099;-65
2024/01/18 23:01:47;;;;;;;;;;;16.40;51.60;;;;;;10345958;28;93628;-65
2024/01/18 23:06:48;;;;;;;;;;;16.30;51.60;;;;;;10352789;28;93351;-64
2024/01/18 23:11:50;;;;;;;;;;;16.30;51.80;;;;;;10360540;28;94474;-65
2024/01/18 23:16:52;;;;;;;;;;;16.30;51.60;;;;;;10349469;28;94508;-64
2024/01/18 23:21:54;;;;;;;;;;;16.20;51.30;;;;;;10352862;28;94674;-65
2024/01/18 23:26:56;;;;;;;;;;;16.20;50.90;;;;;;10370736;28;92704;-65
2024/01/18 23:31:58;;;;;;;;;;;16.20;50.80;;;;;;10354003;28;94838;-65
2024/01/18 23:37:00;;;;;;;;;;;16.10;50.80;;;;;;10368554;28;93456;-64
2024/01/18 23:42:02;;;;;;;;;;;16.10;50.80;;;;;;10353237;28;95803;-64
2024/01/18 23:47:03;;;;;;;;;;;16.10;50.40;;;;;;10346628;28;94400;-63
2024/01/18 23:52:05;;;;;;;;;;;16.10;50.30;;;;;;10346534;28;93484;-65
2024/01/18 23:57:08;;;;;;;;;;;16.10;50.40;;;;;;10355311;28;93538;-64
